createdAt,value
2019-02-16T00:00:33.443Z,5.60
2019-02-16T00:03:01.831Z,5.50
2019-02-16T00:05:30.221Z,5.50
2019-02-16T00:07:58.601Z,5.40
2019-02-16T00:10:26.992Z,5.30
2019-02-16T00:12:55.382Z,5.30
2019-02-16T00:15:23.779Z,5.30
2019-02-16T00:17:52.167Z,5.20
2019-02-16T00:20:20.576Z,5.20
2019-02-16T00:22:48.957Z,5.10
2019-02-16T00:25:17.348Z,5.10
2019-02-16T00:27:45.724Z,5.10
2019-02-16T00:30:14.115Z,5.10
2019-02-16T00:32:42.789Z,5.00
2019-02-16T00:35:11.175Z,5.00
2019-02-16T00:37:39.560Z,5.00
2019-02-16T00:40:08.891Z,5.00
2019-02-16T00:42:37.278Z,5.00
2019-02-16T00:45:07.020Z,4.90
2019-02-16T00:47:35.403Z,4.80
2019-02-16T00:50:03.964Z,4.60
2019-02-16T00:52:32.356Z,4.60
2019-02-16T00:55:00.747Z,4.70
2019-02-16T00:57:29.126Z,4.60
2019-02-16T00:59:57.523Z,4.50
2019-02-16T01:02:25.908Z,4.50
2019-02-16T01:04:54.296Z,4.50
2019-02-16T01:07:22.676Z,4.40
2019-02-16T01:09:51.068Z,4.40
2019-02-16T01:12:19.516Z,4.40
2019-02-16T01:14:48.074Z,4.40
2019-02-16T01:17:16.568Z,4.40
2019-02-16T01:19:44.946Z,4.30
2019-02-16T01:22:13.336Z,4.30
2019-02-16T01:24:41.716Z,4.30
2019-02-16T01:27:10.114Z,4.20
2019-02-16T01:29:38.505Z,4.20
2019-02-16T01:32:06.961Z,4.20
2019-02-16T01:34:35.368Z,4.10
2019-02-16T01:37:03.765Z,4.10
2019-02-16T01:39:32.140Z,4.10
2019-02-16T01:42:00.547Z,4.10
2019-02-16T01:44:28.917Z,4.10
2019-02-16T01:46:57.303Z,4.00
2019-02-16T01:49:25.683Z,4.00
2019-02-16T01:51:54.081Z,4.00
2019-02-16T01:54:22.461Z,4.00
2019-02-16T01:56:50.858Z,3.90
2019-02-16T01:59:19.235Z,3.90
2019-02-16T02:01:47.640Z,3.90
2019-02-16T02:04:16.022Z,3.90
2019-02-16T02:06:44.412Z,3.80
2019-02-16T02:09:12.797Z,3.80
2019-02-16T02:11:41.194Z,3.80
2019-02-16T02:14:09.576Z,3.80
2019-02-16T02:16:37.980Z,3.80
2019-02-16T02:19:06.355Z,3.70
2019-02-16T02:21:40.863Z,3.70
2019-02-16T02:24:04.931Z,3.70
2019-02-16T02:26:33.328Z,3.70
2019-02-16T02:29:01.707Z,3.70
2019-02-16T02:31:30.100Z,3.70
2019-02-16T02:33:58.476Z,3.70
2019-02-16T02:36:27.054Z,3.70
2019-02-16T02:38:55.444Z,3.60
2019-02-16T02:41:23.824Z,3.60
2019-02-16T02:43:52.221Z,3.60
2019-02-16T02:46:20.597Z,3.60
2019-02-16T02:48:48.987Z,3.60
2019-02-16T02:51:17.439Z,3.60
2019-02-16T02:53:45.833Z,3.60
2019-02-16T02:56:14.462Z,3.60
2019-02-16T02:58:42.855Z,3.60
2019-02-16T03:01:11.233Z,3.60
2019-02-16T03:03:39.624Z,3.60
2019-02-16T03:06:07.995Z,3.60
2019-02-16T03:08:36.393Z,3.50
2019-02-16T03:11:04.779Z,3.50
2019-02-16T03:13:33.180Z,3.50
2019-02-16T03:16:01.549Z,3.50
2019-02-16T03:18:29.945Z,3.50
2019-02-16T03:20:58.331Z,3.50
2019-02-16T03:23:26.733Z,3.50
2019-02-16T03:26:04.138Z,3.50
2019-02-16T03:28:41.429Z,3.40
2019-02-16T03:31:27.296Z,3.40
2019-02-16T03:33:58.795Z,3.40
2019-02-16T03:37:01.429Z,3.40
2019-02-16T03:39:29.997Z,3.40
2019-02-16T03:41:58.373Z,3.30
2019-02-16T03:44:26.763Z,3.30
2019-02-16T03:46:55.149Z,3.20
2019-02-16T03:49:23.542Z,3.20
2019-02-16T03:51:51.920Z,3.20
2019-02-16T03:54:20.312Z,3.10
2019-02-16T03:56:48.700Z,3.10
2019-02-16T03:59:17.096Z,3.10
2019-02-16T04:01:45.481Z,3.10
2019-02-16T04:04:13.867Z,3.00
2019-02-16T04:06:42.252Z,3.00
2019-02-16T04:09:10.639Z,3.00
2019-02-16T04:11:39.023Z,3.00
2019-02-16T04:14:07.407Z,2.90
2019-02-16T04:16:35.794Z,2.90
2019-02-16T04:19:04.182Z,2.80
2019-02-16T04:21:32.577Z,2.80
2019-02-16T04:24:00.971Z,2.80
2019-02-16T04:26:29.360Z,2.80
2019-02-16T04:28:57.746Z,2.80
2019-02-16T04:31:26.140Z,2.70
2019-02-16T04:33:54.514Z,2.70
2019-02-16T04:36:22.971Z,2.70
2019-02-16T04:38:51.678Z,2.70
2019-02-16T04:41:20.073Z,2.70
2019-02-16T04:43:48.453Z,2.70
2019-02-16T04:46:16.843Z,2.70
2019-02-16T04:48:45.229Z,2.70
2019-02-16T04:51:13.615Z,2.70
2019-02-16T04:53:42.269Z,2.70
2019-02-16T04:56:10.664Z,2.70
2019-02-16T04:58:39.045Z,2.60
2019-02-16T05:01:07.443Z,2.60
2019-02-16T05:03:35.832Z,2.50
2019-02-16T05:06:04.234Z,2.50
2019-02-16T05:08:32.621Z,2.50
2019-02-16T05:11:01.020Z,2.50
2019-02-16T05:13:29.404Z,2.50
2019-02-16T05:15:57.795Z,2.50
2019-02-16T05:18:26.179Z,2.40
2019-02-16T05:20:54.567Z,2.40
2019-02-16T05:23:23.003Z,2.40
2019-02-16T05:25:51.410Z,2.40
2019-02-16T05:28:19.783Z,2.40
2019-02-16T05:30:48.296Z,2.30
2019-02-16T05:33:16.741Z,2.30
2019-02-16T05:35:45.147Z,2.30
2019-02-16T05:38:13.528Z,2.30
2019-02-16T05:40:41.903Z,2.30
2019-02-16T05:43:10.298Z,2.30
2019-02-16T05:45:38.684Z,2.30
2019-02-16T05:48:07.072Z,2.30
2019-02-16T05:50:35.451Z,2.30
2019-02-16T05:53:03.847Z,2.30
2019-02-16T05:55:32.233Z,2.30
2019-02-16T05:58:00.633Z,2.30
2019-02-16T06:00:30.661Z,2.20
2019-02-16T06:02:59.052Z,2.20
2019-02-16T06:05:27.502Z,2.20
2019-02-16T06:07:55.889Z,2.10
2019-02-16T06:10:24.268Z,2.10
2019-02-16T06:12:52.667Z,2.10
2019-02-16T06:15:21.039Z,2.10
2019-02-16T06:17:49.430Z,2.10
2019-02-16T06:20:17.803Z,2.10
2019-02-16T06:22:46.196Z,2.10
2019-02-16T06:25:14.572Z,2.10
2019-02-16T06:27:42.972Z,2.20
2019-02-16T06:30:11.639Z,2.10
2019-02-16T06:32:40.028Z,2.20
2019-02-16T06:35:26.848Z,2.20
2019-02-16T06:37:55.246Z,2.20
2019-02-16T06:40:23.629Z,2.20
2019-02-16T06:42:52.030Z,2.20
2019-02-16T06:45:20.404Z,2.10
2019-02-16T06:47:48.796Z,2.10
2019-02-16T06:50:17.176Z,2.00
2019-02-16T06:52:45.575Z,2.00
2019-02-16T06:55:14.201Z,2.00
2019-02-16T06:57:44.227Z,2.00
2019-02-16T07:00:14.085Z,1.90
2019-02-16T07:02:42.483Z,1.90
2019-02-16T07:05:10.876Z,1.90
2019-02-16T07:07:39.298Z,2.00
2019-02-16T07:10:09.071Z,2.00
2019-02-16T07:12:37.447Z,2.00
2019-02-16T07:15:07.170Z,2.20
2019-02-16T07:17:40.069Z,2.40
2019-02-16T07:20:09.377Z,2.60
2019-02-16T07:22:38.092Z,2.80
2019-02-16T07:25:07.520Z,3.00
2019-02-16T07:27:35.895Z,3.40
2019-02-16T07:30:06.134Z,3.90
2019-02-16T07:32:34.519Z,4.40
2019-02-16T07:35:02.912Z,4.90
2019-02-16T07:37:31.301Z,5.20
2019-02-16T07:39:59.688Z,5.70
2019-02-16T07:42:29.709Z,6.00
2019-02-16T07:45:08.896Z,6.30
2019-02-16T07:47:38.924Z,6.50
2019-02-16T07:50:09.283Z,6.90
2019-02-16T07:52:51.383Z,6.90
2019-02-16T07:55:36.498Z,6.90
2019-02-16T07:58:15.512Z,7.20
2019-02-16T08:00:57.207Z,7.20
2019-02-16T08:03:33.213Z,7.30
2019-02-16T08:06:19.684Z,7.40
2019-02-16T08:08:58.724Z,7.50
2019-02-16T08:11:45.402Z,7.70
2019-02-16T08:14:15.415Z,7.90
2019-02-16T08:16:47.976Z,8.20
2019-02-16T08:19:30.244Z,8.50
2019-02-16T08:22:00.340Z,8.70
2019-02-16T08:24:42.540Z,9.10
2019-02-16T08:27:21.667Z,9.60
2019-02-16T08:30:03.436Z,9.90
2019-02-16T08:32:36.190Z,9.90
2019-02-16T08:35:06.767Z,10.10
2019-02-16T08:37:45.140Z,10.20
2019-02-16T08:40:15.185Z,9.90
2019-02-16T08:43:01.247Z,10.00
2019-02-16T08:45:37.191Z,9.80
2019-02-16T08:48:19.168Z,9.90
2019-02-16T08:50:55.219Z,9.80
2019-02-16T08:53:33.986Z,9.60
2019-02-16T08:56:04.155Z,9.90
2019-02-16T08:58:52.259Z,10.10
2019-02-16T09:01:34.393Z,10.20
2019-02-16T09:04:10.493Z,10.30
2019-02-16T09:06:40.523Z,10.60
2019-02-16T09:09:10.557Z,11.30
2019-02-16T09:11:40.606Z,11.40
2019-02-16T09:14:28.912Z,11.00
2019-02-16T09:16:58.949Z,11.40
2019-02-16T09:19:44.256Z,11.30
2019-02-16T09:22:14.290Z,11.80
2019-02-16T09:24:44.316Z,12.50
2019-02-16T09:27:14.350Z,12.70
2019-02-16T09:29:47.401Z,12.70
2019-02-16T09:32:29.631Z,13.00
2019-02-16T09:35:15.858Z,13.30
2019-02-16T09:37:55.201Z,12.60
2019-02-16T09:40:37.263Z,12.50
2019-02-16T09:43:16.081Z,12.70
2019-02-16T09:46:02.355Z,13.50
2019-02-16T09:48:35.528Z,13.20
2019-02-16T09:51:14.974Z,12.90
2019-02-16T09:54:08.170Z,13.10
2019-02-16T09:56:42.355Z,13.10
2019-02-16T09:59:15.395Z,13.30
2019-02-16T10:01:57.533Z,13.50
2019-02-16T10:04:27.574Z,13.50
2019-02-16T10:07:03.192Z,13.70
2019-02-16T10:09:51.411Z,13.80
2019-02-16T10:12:24.230Z,13.90
2019-02-16T10:15:00.362Z,13.90
2019-02-16T10:17:36.384Z,13.90
2019-02-16T10:20:09.797Z,14.80
2019-02-16T10:22:45.666Z,14.90
2019-02-16T10:25:18.445Z,14.60
2019-02-16T10:27:48.492Z,14.50
2019-02-16T10:30:27.617Z,14.90
2019-02-16T10:32:57.653Z,15.40
2019-02-16T10:35:27.747Z,14.80
2019-02-16T10:37:57.860Z,15.30
2019-02-16T10:40:40.104Z,15.80
2019-02-16T10:43:13.164Z,15.70
2019-02-16T10:45:59.389Z,15.40
2019-02-16T10:48:38.474Z,15.80
2019-02-16T10:51:08.801Z,15.90
2019-02-16T10:53:47.909Z,15.80
2019-02-16T10:56:20.633Z,15.90
2019-02-16T10:58:53.756Z,16.10
2019-02-16T11:01:29.674Z,15.90
2019-02-16T11:04:08.724Z,15.30
2019-02-16T11:06:38.742Z,15.00
2019-02-16T11:09:20.840Z,15.30
2019-02-16T11:12:05.963Z,15.70
2019-02-16T11:14:36.069Z,15.70
2019-02-16T11:17:21.069Z,15.80
2019-02-16T11:20:06.182Z,16.40
2019-02-16T11:22:36.214Z,17.10
2019-02-16T11:25:07.301Z,17.00
2019-02-16T11:27:49.554Z,17.30
2019-02-16T11:30:22.539Z,17.00
2019-02-16T11:32:52.571Z,16.80
2019-02-16T11:35:25.325Z,17.20
2019-02-16T11:37:55.352Z,17.60
2019-02-16T11:40:41.744Z,17.00
2019-02-16T11:43:28.212Z,17.00
2019-02-16T11:46:04.468Z,17.20
2019-02-16T11:48:49.428Z,17.10
2019-02-16T11:51:19.541Z,17.20
2019-02-16T11:53:52.240Z,17.30
2019-02-16T11:56:28.291Z,17.70
2019-02-16T11:59:04.255Z,18.20
2019-02-16T12:01:50.871Z,18.50
2019-02-16T12:04:20.918Z,17.60
2019-02-16T12:06:56.735Z,17.40
2019-02-16T12:09:42.904Z,17.10
2019-02-16T12:12:25.160Z,16.90
2019-02-16T12:14:55.195Z,16.90
2019-02-16T12:17:31.041Z,16.90
2019-02-16T12:20:17.519Z,16.90
2019-02-16T12:23:02.615Z,17.20
2019-02-16T12:25:32.647Z,17.10
2019-02-16T12:28:19.064Z,17.30
2019-02-16T12:30:49.095Z,17.60
2019-02-16T12:33:28.061Z,17.80
2019-02-16T12:36:16.045Z,17.70
2019-02-16T12:38:49.130Z,17.50
2019-02-16T12:41:34.128Z,17.50
2019-02-16T12:44:19.327Z,17.50
2019-02-16T12:46:51.911Z,17.60
2019-02-16T12:49:37.939Z,18.20
2019-02-16T12:52:10.927Z,17.90
2019-02-16T12:54:47.133Z,17.90
2019-02-16T12:57:32.172Z,17.60
2019-02-16T13:00:18.349Z,17.70
2019-02-16T13:03:04.941Z,17.40
2019-02-16T13:05:51.523Z,17.70
2019-02-16T13:08:39.335Z,18.50
2019-02-16T13:11:09.359Z,18.60
2019-02-16T13:13:42.368Z,18.50
2019-02-16T13:16:17.848Z,19.20
2019-02-16T13:18:50.856Z,18.70
2019-02-16T13:21:20.875Z,18.10
2019-02-16T13:23:50.918Z,18.40
2019-02-16T13:26:33.219Z,17.90
2019-02-16T13:29:15.719Z,18.10
2019-02-16T13:32:00.708Z,18.30
2019-02-16T13:34:39.660Z,18.50
2019-02-16T13:37:21.820Z,18.20
2019-02-16T13:40:07.636Z,18.70
2019-02-16T13:42:49.828Z,18.60
2019-02-16T13:45:23.357Z,18.60
2019-02-16T13:47:53.378Z,18.50
2019-02-16T13:50:23.467Z,17.90
2019-02-16T13:53:02.669Z,18.30
2019-02-16T13:55:36.245Z,18.70
2019-02-16T13:58:12.238Z,19.10
2019-02-16T14:00:42.259Z,19.40
2019-02-16T14:03:15.083Z,19.50
2019-02-16T14:05:45.118Z,19.30
2019-02-16T14:08:15.176Z,18.80
2019-02-16T14:11:03.630Z,18.50
2019-02-16T14:13:45.744Z,18.70
2019-02-16T14:16:34.120Z,18.70
2019-02-16T14:19:02.531Z,18.80
2019-02-16T14:21:30.919Z,18.60
2019-02-16T14:23:59.311Z,19.00
2019-02-16T14:26:27.700Z,19.30
2019-02-16T14:28:56.095Z,19.20
2019-02-16T14:31:28.523Z,19.00
2019-02-16T14:33:54.872Z,19.10
2019-02-16T14:36:23.260Z,19.20
2019-02-16T14:38:53.302Z,19.00
2019-02-16T14:41:21.692Z,18.90
2019-02-16T14:43:50.081Z,18.50
2019-02-16T14:46:18.480Z,18.30
2019-02-16T14:48:46.871Z,18.20
2019-02-16T14:51:15.428Z,18.10
2019-02-16T14:53:43.851Z,18.60
2019-02-16T14:56:12.258Z,18.80
2019-02-16T14:58:40.624Z,18.80
2019-02-16T15:01:09.035Z,18.30
2019-02-16T15:03:37.420Z,17.90
2019-02-16T15:06:05.815Z,17.60
2019-02-16T15:08:34.208Z,17.30
2019-02-16T15:11:02.638Z,17.40
2019-02-16T15:13:31.117Z,17.40
2019-02-16T15:15:59.584Z,17.70
2019-02-16T15:18:27.985Z,17.40
2019-02-16T15:20:56.449Z,17.40
2019-02-16T15:23:24.903Z,17.30
2019-02-16T15:26:00.752Z,17.10
2019-02-16T15:28:23.409Z,16.80
2019-02-16T15:30:51.816Z,16.80
2019-02-16T15:33:20.218Z,16.70
2019-02-16T15:35:48.607Z,16.70
2019-02-16T15:38:16.999Z,16.70
2019-02-16T15:40:45.401Z,16.50
2019-02-16T15:43:13.789Z,16.50
2019-02-16T15:45:42.194Z,16.60
2019-02-16T15:48:10.587Z,16.60
2019-02-16T15:50:39.300Z,16.60
2019-02-16T15:53:08.047Z,16.70
2019-02-16T15:55:36.668Z,16.80
2019-02-16T15:58:05.073Z,16.80
2019-02-16T16:00:33.455Z,16.90
2019-02-16T16:03:01.860Z,16.80
2019-02-16T16:05:30.322Z,16.70
2019-02-16T16:08:00.352Z,16.50
2019-02-16T16:10:30.381Z,16.50
2019-02-16T16:13:06.411Z,16.50
2019-02-16T16:15:42.476Z,16.30
2019-02-16T16:18:10.930Z,16.00
2019-02-16T16:20:50.109Z,15.90
2019-02-16T16:23:22.556Z,15.90
2019-02-16T16:25:52.576Z,15.90
2019-02-16T16:28:25.563Z,15.90
2019-02-16T16:30:55.587Z,15.90
2019-02-16T16:33:25.636Z,15.90
2019-02-16T16:35:55.658Z,15.80
2019-02-16T16:38:31.681Z,15.80
2019-02-16T16:41:13.730Z,15.80
2019-02-16T16:43:58.758Z,15.80
2019-02-16T16:46:28.786Z,15.80
2019-02-16T16:49:04.959Z,15.60
2019-02-16T16:51:40.718Z,15.50
2019-02-16T16:54:10.750Z,15.20
2019-02-16T16:56:40.786Z,15.20
2019-02-16T16:59:25.510Z,15.10
2019-02-16T17:02:13.837Z,15.10
2019-02-16T17:04:47.125Z,14.80
2019-02-16T17:07:38.083Z,14.60
2019-02-16T17:10:17.388Z,14.40
2019-02-16T17:12:53.434Z,14.20
2019-02-16T17:15:23.492Z,14.10
2019-02-16T17:17:53.552Z,14.10
2019-02-16T17:20:26.226Z,14.00
2019-02-16T17:23:02.098Z,13.90
2019-02-16T17:25:41.258Z,13.80
2019-02-16T17:28:27.811Z,13.60
2019-02-16T17:30:57.853Z,13.50
2019-02-16T17:33:27.959Z,13.40
2019-02-16T17:36:06.969Z,13.30
2019-02-16T17:38:45.816Z,13.30
2019-02-16T17:41:24.991Z,13.20
2019-02-16T17:43:55.294Z,13.10
2019-02-16T17:46:25.330Z,12.90
2019-02-16T17:48:58.355Z,12.80
2019-02-16T17:51:28.394Z,12.70
2019-02-16T17:54:08.736Z,12.60
2019-02-16T17:56:54.268Z,12.50
2019-02-16T17:59:36.125Z,12.40
2019-02-16T18:02:06.226Z,12.20
2019-02-16T18:04:51.359Z,12.10
2019-02-16T18:07:24.095Z,12.00
2019-02-16T18:10:00.405Z,11.80
2019-02-16T18:12:39.270Z,11.70
2019-02-16T18:15:25.779Z,11.60
2019-02-16T18:18:01.655Z,11.50
2019-02-16T18:20:34.366Z,11.40
2019-02-16T18:23:10.540Z,11.30
2019-02-16T18:25:40.565Z,11.30
2019-02-16T18:28:25.585Z,11.10
2019-02-16T18:30:55.641Z,11.00
2019-02-16T18:33:31.655Z,10.90
2019-02-16T18:36:07.351Z,10.80
2019-02-16T18:38:37.436Z,10.80
2019-02-16T18:41:10.397Z,10.70
2019-02-16T18:43:43.184Z,10.60
2019-02-16T18:46:19.720Z,10.50
2019-02-16T18:48:52.849Z,10.50
2019-02-16T18:51:32.194Z,10.30
2019-02-16T18:54:14.574Z,10.30
2019-02-16T18:56:44.620Z,10.10
2019-02-16T18:59:14.662Z,10.00
2019-02-16T19:01:53.860Z,9.80
2019-02-16T19:04:26.880Z,9.70
2019-02-16T19:07:06.194Z,9.70
2019-02-16T19:09:41.878Z,9.70
2019-02-16T19:12:11.897Z,9.60
2019-02-16T19:14:44.948Z,9.60
2019-02-16T19:17:17.779Z,9.60
2019-02-16T19:20:04.212Z,9.50
2019-02-16T19:22:36.982Z,9.50
2019-02-16T19:25:14.170Z,9.40
2019-02-16T19:28:00.673Z,9.30
2019-02-16T19:30:33.811Z,9.20
2019-02-16T19:33:06.582Z,9.20
2019-02-16T19:35:39.537Z,9.20
2019-02-16T19:38:09.560Z,9.10
2019-02-16T19:40:42.663Z,9.10
2019-02-16T19:43:18.622Z,9.00
2019-02-16T19:46:03.745Z,9.00
2019-02-16T19:48:33.765Z,8.90
2019-02-16T19:51:20.466Z,8.80
2019-02-16T19:53:53.430Z,8.80
2019-02-16T19:56:29.159Z,8.70
2019-02-16T19:58:59.228Z,8.60
2019-02-16T20:01:45.984Z,8.40
2019-02-16T20:04:18.989Z,8.40
2019-02-16T20:06:51.687Z,8.30
2019-02-16T20:09:33.493Z,8.20
2019-02-16T20:12:21.660Z,8.10
2019-02-16T20:14:51.683Z,8.00
2019-02-16T20:17:27.573Z,7.90
2019-02-16T20:20:00.473Z,7.80
2019-02-16T20:22:36.702Z,7.70
2019-02-16T20:25:06.808Z,7.60
2019-02-16T20:27:42.597Z,7.60
2019-02-16T20:30:15.387Z,7.50
2019-02-16T20:32:48.041Z,7.40
2019-02-16T20:35:18.256Z,7.30
2019-02-16T20:37:48.429Z,7.20
2019-02-16T20:40:27.627Z,7.20
2019-02-16T20:43:09.486Z,7.20
2019-02-16T20:45:39.503Z,7.10
2019-02-16T20:48:12.485Z,7.10
2019-02-16T20:50:45.343Z,7.00
2019-02-16T20:53:18.008Z,7.00
2019-02-16T20:55:53.827Z,7.00
2019-02-16T20:58:40.157Z,7.00
2019-02-16T21:01:25.477Z,6.90
2019-02-16T21:04:04.533Z,6.80
2019-02-16T21:06:37.663Z,6.80
2019-02-16T21:09:25.076Z,6.70
2019-02-16T21:12:01.068Z,6.70
2019-02-16T21:14:31.121Z,6.70
2019-02-16T21:17:17.231Z,6.60
2019-02-16T21:19:49.176Z,6.50
2019-02-16T21:22:19.012Z,6.50
2019-02-16T21:25:05.551Z,6.50
2019-02-16T21:27:35.572Z,6.40
2019-02-16T21:30:07.033Z,6.40
2019-02-16T21:32:37.059Z,6.40
2019-02-16T21:35:17.020Z,6.40
2019-02-16T21:37:58.792Z,6.30
2019-02-16T21:40:31.565Z,6.20
2019-02-16T21:43:01.597Z,6.20
2019-02-16T21:45:34.336Z,6.10
2019-02-16T21:48:04.352Z,6.00
2019-02-16T21:50:37.360Z,6.00
2019-02-16T21:53:10.212Z,6.00
2019-02-16T21:55:45.759Z,6.00
2019-02-16T21:58:33.634Z,6.00
2019-02-16T22:01:06.648Z,5.90
2019-02-16T22:03:36.678Z,5.90
2019-02-16T22:06:18.761Z,5.90
2019-02-16T22:08:54.728Z,5.80
2019-02-16T22:11:24.809Z,5.80
2019-02-16T22:13:53.254Z,5.70
2019-02-16T22:16:21.661Z,5.70
2019-02-16T22:18:50.042Z,5.70
2019-02-16T22:21:18.437Z,5.60
2019-02-16T22:23:46.824Z,5.60
2019-02-16T22:26:15.219Z,5.50
2019-02-16T22:28:43.610Z,5.50
2019-02-16T22:31:12.000Z,5.50
2019-02-16T22:33:40.488Z,5.50
2019-02-16T22:36:08.869Z,5.40
2019-02-16T22:38:37.252Z,5.40
2019-02-16T22:41:05.668Z,5.40
2019-02-16T22:43:34.080Z,5.40
2019-02-16T22:46:02.467Z,5.30
2019-02-16T22:48:30.857Z,5.30
2019-02-16T22:50:59.401Z,5.30
2019-02-16T22:53:27.787Z,5.20
2019-02-16T22:55:56.174Z,5.10
2019-02-16T22:58:28.920Z,5.10
2019-02-16T23:00:55.442Z,5.00
2019-02-16T23:03:23.999Z,5.00
2019-02-16T23:05:52.411Z,4.90
2019-02-16T23:08:21.065Z,4.90
2019-02-16T23:10:49.460Z,4.80
2019-02-16T23:13:17.879Z,4.80
2019-02-16T23:15:46.249Z,4.80
2019-02-16T23:18:14.634Z,4.80
2019-02-16T23:20:43.150Z,4.70
2019-02-16T23:23:11.633Z,4.60
2019-02-16T23:25:40.048Z,4.60
2019-02-16T23:28:08.448Z,4.50
2019-02-16T23:30:37.311Z,4.50
2019-02-16T23:33:05.705Z,4.50
2019-02-16T23:35:34.091Z,4.50
2019-02-16T23:38:02.580Z,4.40
2019-02-16T23:40:30.952Z,4.40
2019-02-16T23:42:59.347Z,4.40
2019-02-16T23:45:27.742Z,4.30
2019-02-16T23:47:56.209Z,4.30
2019-02-16T23:50:24.587Z,4.30
2019-02-16T23:52:52.996Z,4.20
2019-02-16T23:55:21.370Z,4.20
2019-02-16T23:57:49.775Z,4.20
